createdAt,value
2019-04-30T00:01:48.507Z,97972.24
2019-04-30T00:04:25.279Z,97966.80
2019-04-30T00:06:56.917Z,97966.78
2019-04-30T00:09:30.338Z,97968.02
2019-04-30T00:12:02.645Z,97967.16
2019-04-30T00:14:38.622Z,97957.31
2019-04-30T00:17:10.753Z,97963.34
2019-04-30T00:19:42.600Z,97956.09
2019-04-30T00:22:15.821Z,97956.26
2019-04-30T00:24:50.027Z,97965.61
2019-04-30T00:27:26.367Z,97964.05
2019-04-30T00:29:55.871Z,97956.40
2019-04-30T00:32:28.272Z,97961.92
2019-04-30T00:35:00.347Z,97964.92
2019-04-30T00:37:32.390Z,97958.61
2019-04-30T00:40:05.587Z,97959.72
2019-04-30T00:42:38.078Z,97958.77
2019-04-30T00:45:12.207Z,97959.69
2019-04-30T00:47:47.790Z,97962.27
2019-04-30T00:50:18.314Z,97961.45
2019-04-30T00:52:50.742Z,97961.73
2019-04-30T00:55:24.869Z,97974.58
2019-04-30T00:57:57.006Z,97966.73
2019-04-30T01:00:30.388Z,97959.67
2019-04-30T01:03:11.065Z,97952.36
2019-04-30T01:05:46.464Z,97952.83
2019-04-30T01:08:21.161Z,97952.09
2019-04-30T01:10:51.036Z,97951.75
2019-04-30T01:13:23.250Z,97949.13
2019-04-30T01:15:55.330Z,97944.58
2019-04-30T01:18:28.524Z,97942.65
2019-04-30T01:21:02.977Z,97940.70
2019-04-30T01:23:43.101Z,97937.58
2019-04-30T01:26:11.335Z,97937.31
2019-04-30T01:28:43.479Z,97935.17
2019-04-30T01:31:15.587Z,97932.23
2019-04-30T01:33:48.917Z,97937.99
2019-04-30T01:36:21.497Z,97932.11
2019-04-30T01:38:53.612Z,97935.47
2019-04-30T01:41:27.563Z,97929.69
2019-04-30T01:44:03.764Z,97930.09
2019-04-30T01:46:33.643Z,97927.27
2019-04-30T01:49:06.204Z,97924.33
2019-04-30T01:51:38.682Z,97925.89
2019-04-30T01:54:13.752Z,97926.78
2019-04-30T01:56:55.484Z,97924.90
2019-04-30T01:59:33.448Z,97916.64
2019-04-30T02:02:06.084Z,97918.83
2019-04-30T02:04:39.346Z,97920.95
2019-04-30T02:07:11.430Z,97918.70
2019-04-30T02:09:43.550Z,97922.28
2019-04-30T02:12:15.594Z,97921.07
2019-04-30T02:14:49.761Z,97922.63
2019-04-30T02:17:22.309Z,97920.81
2019-04-30T02:19:56.841Z,97920.11
2019-04-30T02:22:30.927Z,97922.68
2019-04-30T02:25:04.684Z,97921.91
2019-04-30T02:27:36.820Z,97922.36
2019-04-30T02:30:11.070Z,97920.65
2019-04-30T02:32:43.689Z,97920.07
2019-04-30T02:35:33.392Z,97918.41
2019-04-30T02:38:16.193Z,97915.23
2019-04-30T02:40:49.902Z,97913.45
2019-04-30T02:43:25.100Z,97912.48
2019-04-30T02:46:00.067Z,97912.47
2019-04-30T02:48:34.340Z,97908.56
2019-04-30T02:51:10.209Z,97916.31
2019-04-30T02:54:24.153Z,97919.28
2019-04-30T02:57:11.577Z,97910.98
2019-04-30T03:00:01.789Z,97907.70
2019-04-30T03:02:34.354Z,97914.08
2019-04-30T03:05:12.947Z,97918.20
2019-04-30T03:07:42.804Z,97917.31
2019-04-30T03:10:15.084Z,97915.57
2019-04-30T03:12:49.696Z,97915.18
2019-04-30T03:15:22.817Z,97917.47
2019-04-30T03:18:12.601Z,97914.39
2019-04-30T03:21:09.912Z,97922.16
2019-04-30T03:23:42.018Z,97917.22
2019-04-30T03:26:14.085Z,97928.22
2019-04-30T03:28:46.144Z,97925.41
2019-04-30T03:31:22.003Z,97921.70
2019-04-30T03:33:52.959Z,97922.09
2019-04-30T03:36:25.470Z,97920.84
2019-04-30T03:39:00.022Z,97920.70
2019-04-30T03:41:33.439Z,97919.74
2019-04-30T03:44:17.440Z,97922.55
2019-04-30T03:46:40.376Z,97919.13
2019-04-30T03:49:13.441Z,97916.22
2019-04-30T03:51:45.705Z,97917.53
2019-04-30T03:54:19.259Z,97926.00
2019-04-30T03:56:53.247Z,97932.41
2019-04-30T03:59:25.359Z,97933.88
2019-04-30T04:02:20.786Z,97930.45
2019-04-30T04:05:10.254Z,97926.44
2019-04-30T04:08:00.214Z,97926.67
2019-04-30T04:10:40.408Z,97933.07
2019-04-30T04:13:13.036Z,97932.63
2019-04-30T04:15:45.669Z,97929.84
2019-04-30T04:18:20.044Z,97931.19
2019-04-30T04:21:07.044Z,97930.32
2019-04-30T04:23:25.317Z,97939.26
2019-04-30T04:25:59.711Z,97940.87
2019-04-30T04:28:31.370Z,97941.56
2019-04-30T04:31:03.498Z,97953.50
2019-04-30T04:33:35.889Z,97955.84
2019-04-30T04:36:09.175Z,97952.59
2019-04-30T04:38:41.725Z,97965.20
2019-04-30T04:41:13.741Z,97965.21
2019-04-30T04:43:46.076Z,97967.52
2019-04-30T04:46:20.545Z,97968.25
2019-04-30T04:48:52.526Z,97967.44
2019-04-30T04:51:36.792Z,97973.55
2019-04-30T04:54:00.083Z,97969.02
2019-04-30T04:56:32.181Z,97974.88
2019-04-30T04:59:04.230Z,97985.25
2019-04-30T05:01:36.202Z,97985.73
2019-04-30T05:04:09.240Z,97994.52
2019-04-30T05:06:41.769Z,97990.87
2019-04-30T05:09:13.800Z,97994.97
2019-04-30T05:11:45.925Z,97994.95
2019-04-30T05:14:18.973Z,97999.03
2019-04-30T05:16:51.533Z,97995.17
2019-04-30T05:19:24.458Z,97991.48
2019-04-30T05:21:56.573Z,97998.70
2019-04-30T05:24:28.892Z,98001.66
2019-04-30T05:27:01.420Z,97999.78
2019-04-30T05:29:33.746Z,98000.97
2019-04-30T05:32:06.148Z,98004.33
2019-04-30T05:34:38.564Z,98009.17
2019-04-30T05:37:10.942Z,98013.11
2019-04-30T05:39:42.859Z,98010.98
2019-04-30T05:42:15.131Z,98014.62
2019-04-30T05:44:47.081Z,98014.84
2019-04-30T05:47:19.741Z,98019.70
2019-04-30T05:49:52.132Z,98013.47
2019-04-30T05:52:24.084Z,98013.68
2019-04-30T05:54:56.248Z,98013.64
2019-04-30T05:57:29.425Z,98008.00
2019-04-30T06:00:01.587Z,98013.13
2019-04-30T06:02:34.286Z,98013.18
2019-04-30T06:05:08.623Z,98009.58
2019-04-30T06:07:41.514Z,98001.86
2019-04-30T06:10:20.267Z,97997.06
2019-04-30T06:12:59.660Z,98002.59
2019-04-30T06:15:45.847Z,98007.07
2019-04-30T06:18:18.547Z,98003.64
2019-04-30T06:20:51.758Z,98014.45
2019-04-30T06:23:24.394Z,98010.67
2019-04-30T06:26:00.624Z,98012.22
2019-04-30T06:28:31.978Z,98017.88
2019-04-30T06:31:04.547Z,98021.41
2019-04-30T06:33:38.875Z,98011.70
2019-04-30T06:36:12.620Z,98012.45
2019-04-30T06:38:45.056Z,98014.02
2019-04-30T06:41:17.127Z,98006.73
2019-04-30T06:43:50.333Z,98008.64
2019-04-30T06:46:23.030Z,98013.95
2019-04-30T06:48:55.366Z,98006.56
2019-04-30T06:51:30.557Z,98002.52
2019-04-30T06:54:01.589Z,97999.80
2019-04-30T06:56:34.093Z,98002.00
2019-04-30T06:59:06.244Z,98002.05
2019-04-30T07:01:38.871Z,98009.08
2019-04-30T07:04:11.243Z,98007.05
2019-04-30T07:06:45.127Z,98012.56
2019-04-30T07:09:43.640Z,98017.84
2019-04-30T07:12:29.810Z,98014.15
2019-04-30T07:15:00.413Z,98003.37
2019-04-30T07:17:33.136Z,98006.32
2019-04-30T07:20:06.188Z,98006.58
2019-04-30T07:25:12.625Z,98011.36
2019-04-30T07:27:44.701Z,98000.70
2019-04-30T07:30:16.846Z,98002.45
2019-04-30T07:32:49.670Z,98000.80
2019-04-30T07:35:23.215Z,98003.78
2019-04-30T07:38:00.701Z,98011.02
2019-04-30T07:40:29.768Z,98001.61
2019-04-30T07:43:02.500Z,98002.39
2019-04-30T07:45:34.616Z,98003.14
2019-04-30T07:48:09.118Z,98009.07
2019-04-30T07:50:41.872Z,98004.23
2019-04-30T07:53:15.131Z,98007.05
2019-04-30T07:55:49.428Z,98012.56
2019-04-30T07:58:21.598Z,98015.61
2019-04-30T08:00:56.172Z,98013.63
2019-04-30T08:03:40.859Z,98018.17
2019-04-30T08:06:14.341Z,98015.17
2019-04-30T08:08:46.475Z,98014.89
2019-04-30T08:09:36.815Z,98006.01
2019-04-30T08:11:25.734Z,98018.72
2019-04-30T08:13:53.185Z,98020.29
2019-04-30T08:16:25.308Z,98025.16
2019-04-30T08:18:59.142Z,98021.50
2019-04-30T08:21:31.344Z,98016.70
2019-04-30T08:24:04.272Z,98022.77
2019-04-30T08:26:36.422Z,98025.70
2019-04-30T08:29:09.598Z,98026.08
2019-04-30T08:31:41.810Z,98030.02
2019-04-30T08:34:14.317Z,98031.59
2019-04-30T08:36:48.929Z,98028.63
2019-04-30T08:39:20.978Z,98026.77
2019-04-30T08:41:53.525Z,98026.77
2019-04-30T08:44:26.032Z,98025.55
2019-04-30T08:46:59.067Z,98019.70
2019-04-30T08:49:31.799Z,98024.53
2019-04-30T08:52:04.835Z,98022.58
2019-04-30T08:54:36.930Z,98022.03
2019-04-30T08:57:09.994Z,98022.36
2019-04-30T08:59:42.428Z,98015.09
2019-04-30T09:02:16.540Z,98016.09
2019-04-30T09:04:52.242Z,98013.98
2019-04-30T09:07:24.353Z,98019.18
2019-04-30T09:09:58.504Z,98014.98
2019-04-30T09:12:31.367Z,98008.70
2019-04-30T09:15:03.551Z,98005.27
2019-04-30T09:17:35.979Z,98011.86
2019-04-30T09:20:09.125Z,98010.23
2019-04-30T09:22:41.628Z,98014.52
2019-04-30T09:25:13.835Z,98021.51
2019-04-30T09:27:45.965Z,98020.19
2019-04-30T09:30:19.184Z,98019.95
2019-04-30T09:32:51.303Z,98020.12
2019-04-30T09:35:23.396Z,98023.88
2019-04-30T09:38:01.163Z,98015.76
2019-04-30T09:40:32.314Z,98012.52
2019-04-30T09:43:03.547Z,98010.58
2019-04-30T09:45:35.639Z,98010.79
2019-04-30T09:48:09.381Z,98004.97
2019-04-30T09:50:41.694Z,98005.75
2019-04-30T09:53:14.409Z,98004.84
2019-04-30T09:55:46.522Z,98004.06
2019-04-30T09:58:21.123Z,98000.20
2019-04-30T10:00:53.106Z,97998.54
2019-04-30T10:03:25.902Z,97985.73
2019-04-30T10:05:59.076Z,97987.95
2019-04-30T10:08:32.003Z,97986.19
2019-04-30T10:11:35.646Z,97987.69
2019-04-30T10:14:08.379Z,97984.04
2019-04-30T10:16:53.453Z,97976.35
2019-04-30T10:19:25.493Z,97986.03
2019-04-30T10:21:58.971Z,97980.23
2019-04-30T10:24:32.140Z,97973.86
2019-04-30T10:27:07.166Z,97976.28
2019-04-30T10:29:39.521Z,97969.34
2019-04-30T10:32:13.691Z,97968.23
2019-04-30T10:34:46.168Z,97964.16
2019-04-30T10:37:18.977Z,97970.66
2019-04-30T10:39:52.478Z,97966.15
2019-04-30T10:42:24.668Z,97966.73
2019-04-30T10:45:00.121Z,97969.95
2019-04-30T10:47:32.714Z,97964.28
2019-04-30T10:50:06.009Z,97964.20
2019-04-30T10:52:39.296Z,97956.42
2019-04-30T10:55:12.066Z,97963.77
2019-04-30T10:57:44.567Z,97963.65
2019-04-30T11:00:18.681Z,97960.70
2019-04-30T11:02:51.182Z,97957.16
2019-04-30T11:05:23.616Z,97949.14
2019-04-30T11:07:55.693Z,97956.73
2019-04-30T11:10:28.667Z,97959.31
2019-04-30T11:13:01.172Z,97960.74
2019-04-30T11:15:33.412Z,97954.50
2019-04-30T11:18:06.540Z,97952.98
2019-04-30T11:20:39.717Z,97949.23
2019-04-30T11:23:14.534Z,97952.72
2019-04-30T11:25:46.722Z,97941.77
2019-04-30T11:28:20.064Z,97943.35
2019-04-30T11:30:54.247Z,97931.81
2019-04-30T11:33:26.494Z,97926.37
2019-04-30T11:36:03.069Z,97929.98
2019-04-30T11:38:35.118Z,97927.42
2019-04-30T11:41:08.674Z,97918.94
2019-04-30T11:43:41.166Z,97916.88
2019-04-30T11:47:25.203Z,97915.89
2019-04-30T11:49:57.517Z,97911.73
2019-04-30T11:52:29.670Z,97903.00
2019-04-30T11:55:02.567Z,97903.35
2019-04-30T11:57:34.850Z,97895.45
2019-04-30T12:00:12.825Z,97897.37
2019-04-30T12:02:44.902Z,97897.80
2019-04-30T12:05:20.787Z,97896.41
2019-04-30T12:08:11.707Z,97890.69
2019-04-30T12:10:53.178Z,97883.69
2019-04-30T12:13:34.757Z,97882.88
2019-04-30T12:16:08.691Z,97882.87
2019-04-30T12:18:40.782Z,97874.20
2019-04-30T12:21:13.647Z,97882.59
2019-04-30T12:23:45.645Z,97876.42
2019-04-30T12:26:19.064Z,97875.63
2019-04-30T12:28:51.630Z,97873.05
2019-04-30T12:31:24.173Z,97862.95
2019-04-30T12:33:56.177Z,97860.80
2019-04-30T12:36:28.972Z,97862.64
2019-04-30T12:39:01.667Z,97861.12
2019-04-30T12:41:34.111Z,97859.48
2019-04-30T12:44:06.287Z,97867.09
2019-04-30T12:46:38.846Z,97859.85
2019-04-30T12:49:14.343Z,97858.38
2019-04-30T12:52:00.272Z,97859.67
2019-04-30T12:54:51.464Z,97857.38
2019-04-30T12:57:33.640Z,97852.95
2019-04-30T13:00:09.490Z,97846.38
2019-04-30T13:02:42.605Z,97842.06
2019-04-30T13:05:15.557Z,97839.58
2019-04-30T13:07:50.065Z,97844.67
2019-04-30T13:10:23.395Z,97843.59
2019-04-30T13:12:56.755Z,97841.63
2019-04-30T13:15:29.928Z,97839.27
2019-04-30T13:18:02.473Z,97824.92
2019-04-30T13:20:34.941Z,97835.05
2019-04-30T13:23:08.756Z,97834.58
2019-04-30T13:25:51.069Z,97829.82
2019-04-30T13:28:19.810Z,97826.40
2019-04-30T13:30:55.374Z,97826.27
2019-04-30T13:33:33.423Z,97821.22
2019-04-30T13:36:06.405Z,97820.62
2019-04-30T13:38:52.838Z,97821.45
2019-04-30T13:41:44.537Z,97816.38
2019-04-30T13:44:20.740Z,97808.45
2019-04-30T13:46:53.248Z,97804.77
2019-04-30T13:49:29.852Z,97801.75
2019-04-30T13:51:59.921Z,97806.50
2019-04-30T13:54:32.114Z,97805.51
2019-04-30T13:57:04.165Z,97804.38
2019-04-30T13:59:36.282Z,97804.53
2019-04-30T14:02:08.819Z,97804.06
2019-04-30T14:04:47.870Z,97793.94
2019-04-30T14:07:35.035Z,97803.23
2019-04-30T14:10:10.126Z,97805.84
2019-04-30T14:12:48.286Z,97804.23
2019-04-30T14:15:22.338Z,97799.34
2019-04-30T14:17:55.359Z,97791.00
2019-04-30T14:20:27.915Z,97788.47
2019-04-30T14:22:59.988Z,97790.26
2019-04-30T14:25:32.859Z,97791.16
2019-04-30T14:28:05.070Z,97790.19
2019-04-30T14:30:39.298Z,97791.14
2019-04-30T14:33:23.168Z,97785.43
2019-04-30T14:35:46.852Z,97788.75
2019-04-30T14:38:19.280Z,97789.06
2019-04-30T14:40:52.064Z,97780.39
2019-04-30T14:43:31.701Z,97779.31
2019-04-30T14:46:25.672Z,97779.80
2019-04-30T14:49:06.452Z,97776.36
2019-04-30T14:51:39.840Z,97782.30
2019-04-30T14:54:19.977Z,97779.29
2019-04-30T14:57:18.132Z,97777.99
2019-04-30T15:00:11.745Z,97784.55
2019-04-30T15:02:50.049Z,97775.28
2019-04-30T15:05:22.354Z,97777.75
2019-04-30T15:07:54.570Z,97780.70
2019-04-30T15:10:28.066Z,97780.88
2019-04-30T15:13:02.594Z,97784.14
2019-04-30T15:15:34.540Z,97781.17
2019-04-30T15:18:06.873Z,97783.28
2019-04-30T15:20:39.959Z,97779.08
2019-04-30T15:23:30.013Z,97782.18
2019-04-30T15:26:02.453Z,97778.45
2019-04-30T15:28:35.005Z,97777.00
2019-04-30T15:31:08.545Z,97780.40
2019-04-30T15:33:48.099Z,97774.58
2019-04-30T15:36:20.916Z,97775.71
2019-04-30T15:39:17.155Z,97780.22
2019-04-30T15:41:49.575Z,97781.87
2019-04-30T15:44:22.651Z,97784.15
2019-04-30T15:46:55.296Z,97781.41
2019-04-30T15:49:27.932Z,97786.48
2019-04-30T15:52:00.889Z,97784.38
2019-04-30T15:54:33.039Z,97784.03
2019-04-30T15:57:06.093Z,97780.29
2019-04-30T15:59:42.588Z,97784.39
2019-04-30T16:02:34.084Z,97783.58
2019-04-30T16:05:15.392Z,97778.84
2019-04-30T16:08:09.041Z,97775.60
2019-04-30T16:11:08.099Z,97771.71
2019-04-30T16:14:04.816Z,97767.48
2019-04-30T16:16:39.015Z,97764.38
2019-04-30T16:19:12.062Z,97769.10
2019-04-30T16:21:44.288Z,97772.67
2019-04-30T16:24:18.630Z,97772.84
2019-04-30T16:26:54.717Z,97774.94
2019-04-30T16:29:26.804Z,97780.42
2019-04-30T16:31:59.342Z,97783.48
2019-04-30T16:34:31.475Z,97781.84
2019-04-30T16:37:04.088Z,97779.06
2019-04-30T16:39:36.213Z,97777.45
2019-04-30T16:42:09.168Z,97772.42
2019-04-30T16:44:42.007Z,97774.19
2019-04-30T16:47:16.808Z,97774.02
2019-04-30T16:49:49.273Z,97769.27
2019-04-30T16:52:21.973Z,97774.75
2019-04-30T16:54:54.093Z,97771.12
2019-04-30T16:57:30.141Z,97775.75
2019-04-30T17:00:00.634Z,97772.59
2019-04-30T17:02:33.484Z,97772.08
2019-04-30T17:05:25.538Z,97779.22
2019-04-30T17:08:05.947Z,97778.17
2019-04-30T17:10:56.741Z,97770.50
2019-04-30T17:13:41.181Z,97771.26
2019-04-30T17:16:19.541Z,97769.63
2019-04-30T17:18:56.370Z,97763.59
2019-04-30T17:21:30.832Z,97764.19
2019-04-30T17:24:03.378Z,97764.33
2019-04-30T17:26:35.873Z,97770.08
2019-04-30T17:29:09.582Z,97774.91
2019-04-30T17:31:42.006Z,97770.13
2019-04-30T17:34:14.539Z,97774.86
2019-04-30T17:36:46.619Z,97771.68
2019-04-30T17:39:20.663Z,97776.31
2019-04-30T17:41:53.048Z,97780.11
2019-04-30T17:44:26.017Z,97780.05
2019-04-30T17:47:00.118Z,97781.38
2019-04-30T17:49:34.029Z,97784.59
2019-04-30T17:52:06.561Z,97780.89
2019-04-30T17:54:39.187Z,97783.37
2019-04-30T17:57:11.871Z,97787.67
2019-04-30T17:59:44.415Z,97787.72
2019-04-30T18:02:19.476Z,97791.84
2019-04-30T18:04:52.374Z,97798.64
2019-04-30T18:07:24.484Z,97798.36
2019-04-30T18:09:58.609Z,97802.30
2019-04-30T18:12:30.818Z,97802.05
2019-04-30T18:15:03.464Z,97802.36
2019-04-30T18:17:35.993Z,97806.63
2019-04-30T18:20:21.472Z,97813.91
2019-04-30T18:23:00.970Z,97814.23
2019-04-30T18:25:41.142Z,97814.23
2019-04-30T18:28:14.073Z,97820.56
2019-04-30T18:30:46.665Z,97831.21
2019-04-30T18:33:20.463Z,97832.86
2019-04-30T18:35:52.516Z,97836.61
2019-04-30T18:38:24.519Z,97841.30
2019-04-30T18:40:59.415Z,97841.97
2019-04-30T18:43:31.614Z,97839.74
2019-04-30T18:46:03.834Z,97844.27
2019-04-30T18:48:35.907Z,97846.27
2019-04-30T18:51:23.649Z,97849.97
2019-04-30T18:53:42.277Z,97851.83
2019-04-30T18:56:15.105Z,97857.44
2019-04-30T18:58:48.649Z,97859.48
2019-04-30T19:01:21.548Z,97865.06
2019-04-30T19:03:53.675Z,97867.08
2019-04-30T19:06:27.018Z,97873.50
2019-04-30T19:09:19.647Z,97876.20
2019-04-30T19:11:59.357Z,97876.56
2019-04-30T19:14:53.908Z,97879.39
2019-04-30T19:17:49.458Z,97883.59
2019-04-30T19:20:24.495Z,97882.84
2019-04-30T19:22:56.717Z,97887.89
2019-04-30T19:25:29.980Z,97895.92
2019-04-30T19:28:11.366Z,97899.45
2019-04-30T19:30:38.890Z,97897.69
2019-04-30T19:33:11.525Z,97893.91
2019-04-30T19:35:44.022Z,97900.29
2019-04-30T19:38:16.880Z,97902.57
2019-04-30T19:40:49.471Z,97902.91
2019-04-30T19:43:22.360Z,97902.98
2019-04-30T19:45:54.758Z,97920.30
2019-04-30T19:48:27.459Z,97921.77
2019-04-30T19:51:00.451Z,97922.75
2019-04-30T19:53:32.824Z,97922.64
2019-04-30T19:56:05.202Z,97922.72
2019-04-30T19:58:51.416Z,97920.50
2019-04-30T20:01:11.106Z,97924.95
2019-04-30T20:03:43.054Z,97923.44
2019-04-30T20:06:15.082Z,97924.96
2019-04-30T20:08:47.364Z,97921.44
2019-04-30T20:11:19.620Z,97920.80
2019-04-30T20:13:52.325Z,97918.53
2019-04-30T20:16:24.243Z,97917.29
2019-04-30T20:18:56.957Z,97922.44
2019-04-30T20:21:45.371Z,97919.50
2019-04-30T20:24:03.302Z,97916.81
2019-04-30T20:26:37.771Z,97916.26
2019-04-30T20:29:11.381Z,97921.52
2019-04-30T20:31:46.211Z,97916.89
2019-04-30T20:34:19.157Z,97918.15
2019-04-30T20:36:52.059Z,97914.60
2019-04-30T20:39:30.535Z,97917.81
2019-04-30T20:42:02.782Z,97917.44
2019-04-30T20:44:35.045Z,97915.57
2019-04-30T20:47:08.949Z,97919.45
2019-04-30T20:49:40.951Z,97921.53
2019-04-30T20:52:12.970Z,97925.22
2019-04-30T20:54:44.922Z,97923.41
2019-04-30T20:57:17.277Z,97918.27
2019-04-30T20:59:49.486Z,97912.24
2019-04-30T21:02:21.445Z,97911.60
2019-04-30T21:04:54.594Z,97919.83
2019-04-30T21:07:27.430Z,97920.45
2019-04-30T21:10:00.429Z,97915.85
2019-04-30T21:12:32.742Z,97916.70
2019-04-30T21:15:07.221Z,97917.62
2019-04-30T21:17:41.281Z,97913.92
2019-04-30T21:20:14.401Z,97911.52
2019-04-30T21:22:46.771Z,97912.37
2019-04-30T21:25:19.018Z,97912.62
2019-04-30T21:27:50.942Z,97915.79
2019-04-30T21:30:23.759Z,97926.48
2019-04-30T21:33:06.637Z,97918.36
2019-04-30T21:36:03.664Z,97921.27
2019-04-30T21:38:36.434Z,97919.52
2019-04-30T21:41:09.974Z,97917.75
2019-04-30T21:43:43.023Z,97922.50
2019-04-30T21:46:15.300Z,97922.61
2019-04-30T21:48:48.823Z,97926.51
2019-04-30T21:51:21.105Z,97922.38
2019-04-30T21:53:54.197Z,97926.43
2019-04-30T21:56:26.261Z,97921.97
2019-04-30T21:58:58.553Z,97918.64
2019-04-30T22:01:30.566Z,97917.70
2019-04-30T22:04:02.516Z,97919.38
2019-04-30T22:06:34.468Z,97919.09
2019-04-30T22:09:09.742Z,97919.44
2019-04-30T22:11:41.777Z,97921.16
2019-04-30T22:14:14.057Z,97923.79
2019-04-30T22:16:46.008Z,97918.87
2019-04-30T22:19:20.784Z,97922.89
2019-04-30T22:21:53.060Z,97920.63
2019-04-30T22:24:25.504Z,97923.44
2019-04-30T22:26:57.899Z,97920.86
2019-04-30T22:29:39.157Z,97923.92
2019-04-30T22:32:04.443Z,97926.67
2019-04-30T22:34:36.818Z,97926.53
2019-04-30T22:37:09.202Z,97927.04
2019-04-30T22:39:47.114Z,97930.08
2019-04-30T22:42:44.107Z,97923.59
2019-04-30T22:45:34.390Z,97923.75
2019-04-30T22:48:06.451Z,97925.11
2019-04-30T22:50:38.474Z,97924.15
2019-04-30T22:53:10.460Z,97925.25
2019-04-30T22:55:42.459Z,97931.68
2019-04-30T22:58:14.968Z,97929.05
2019-04-30T23:00:48.027Z,97928.58
2019-04-30T23:03:33.436Z,97925.61
2019-04-30T23:06:05.626Z,97919.24
2019-04-30T23:08:38.878Z,97919.08
2019-04-30T23:11:11.216Z,97926.62
2019-04-30T23:13:43.473Z,97921.06
2019-04-30T23:16:16.339Z,97919.08
2019-04-30T23:18:48.267Z,97918.53
2019-04-30T23:21:20.222Z,97920.73
2019-04-30T23:23:52.603Z,97920.16
2019-04-30T23:26:24.556Z,97914.86
2019-04-30T23:28:56.938Z,97910.94
2019-04-30T23:31:29.532Z,97914.00
2019-04-30T23:34:02.507Z,97909.97
2019-04-30T23:36:34.770Z,97911.48
2019-04-30T23:39:07.984Z,97907.33
2019-04-30T23:41:44.040Z,97903.82
2019-04-30T23:44:15.986Z,97906.58
2019-04-30T23:46:47.941Z,97903.63
2019-04-30T23:49:19.888Z,97899.85
2019-04-30T23:51:51.828Z,97894.38
2019-04-30T23:54:24.524Z,97901.95
2019-04-30T23:56:56.919Z,97902.97
2019-04-30T23:59:29.112Z,97896.25
